Columbus, Ohio
Traffic Map
Current Weather Conditions
Columbus, Ohio
Broken Clouds
Broken Clouds
51°
Feels Like: 51°
Wind Chill: 51° Ceiling: 5500
Heat Index: 51° Visibility: 10mi
Dew Point: 20° Wind: 7mph
Humidity: 29% Direction: 150° (SSE)
Pressure: 30.22in Gusts: 0mph
Raw Report DataKCMH 240351Z 15006KT 10SM BKN055 BKN065 11/M07 A3022 RMK AO2 SLP235 T01061067
Traffic Incident Summary
Active as of:
Severity:
Category:
InformationThere was an issue retrieving the traffic information for this location. Please try a different location or try again shortly.
Advertisements
Track Severe Weather on mobile